createdAt,value
2018-11-26T00:00:36.102Z,5.30
2018-11-26T00:03:07.824Z,5.30
2018-11-26T00:05:37.087Z,5.30
2018-11-26T00:08:06.291Z,5.30
2018-11-26T00:10:45.991Z,5.40
2018-11-26T00:13:15.140Z,5.40
2018-11-26T00:15:43.987Z,5.40
2018-11-26T00:18:12.727Z,5.40
2018-11-26T00:20:41.472Z,5.40
2018-11-26T00:23:10.004Z,5.50
2018-11-26T00:25:38.567Z,5.50
2018-11-26T00:28:07.448Z,5.50
2018-11-26T00:30:36.172Z,5.50
2018-11-26T00:33:05.062Z,5.50
2018-11-26T00:35:33.614Z,5.50
2018-11-26T00:38:02.188Z,5.50
2018-11-26T00:40:30.719Z,5.50
2018-11-26T00:42:59.144Z,5.50
2018-11-26T00:45:27.587Z,5.50
2018-11-26T00:47:56.199Z,5.50
2018-11-26T00:50:24.854Z,5.40
2018-11-26T00:52:53.445Z,5.40
2018-11-26T00:55:22.119Z,5.40
2018-11-26T00:57:50.660Z,5.40
2018-11-26T01:00:20.173Z,5.40
2018-11-26T01:02:48.560Z,5.40
2018-11-26T01:05:49.757Z,5.40
2018-11-26T01:08:18.868Z,5.40
2018-11-26T01:10:47.274Z,5.40
2018-11-26T01:13:15.746Z,5.40
2018-11-26T01:15:44.179Z,5.40
2018-11-26T01:18:12.538Z,5.40
2018-11-26T01:20:40.951Z,5.50
2018-11-26T01:23:16.135Z,5.50
2018-11-26T01:25:44.729Z,5.50
2018-11-26T01:28:13.277Z,5.50
2018-11-26T01:30:41.948Z,5.50
2018-11-26T01:33:10.367Z,5.50
2018-11-26T01:35:39.366Z,5.50
2018-11-26T01:38:08.184Z,5.50
2018-11-26T01:40:42.309Z,5.50
2018-11-26T01:43:10.752Z,5.50
2018-11-26T01:45:40.039Z,5.50
2018-11-26T01:48:09.224Z,5.60
2018-11-26T01:50:38.223Z,5.60
2018-11-26T01:53:07.805Z,5.60
2018-11-26T01:55:36.913Z,5.60
2018-11-26T01:58:05.385Z,5.60
2018-11-26T02:00:33.784Z,5.70
2018-11-26T02:03:02.984Z,5.70
2018-11-26T02:05:31.526Z,5.70
2018-11-26T02:08:00.153Z,5.70
2018-11-26T02:10:29.360Z,5.70
2018-11-26T02:12:57.806Z,5.70
2018-11-26T02:15:37.894Z,5.70
2018-11-26T02:18:08.494Z,5.70
2018-11-26T02:20:36.951Z,5.70
2018-11-26T02:23:05.701Z,5.70
2018-11-26T02:25:34.346Z,5.60
2018-11-26T02:28:03.430Z,5.70
2018-11-26T02:30:31.973Z,5.60
2018-11-26T02:33:00.825Z,5.60
2018-11-26T02:35:29.431Z,5.60
2018-11-26T02:37:57.826Z,5.60
2018-11-26T02:40:29.378Z,5.60
2018-11-26T02:42:57.786Z,5.60
2018-11-26T02:45:26.178Z,5.60
2018-11-26T02:47:54.564Z,5.60
2018-11-26T02:50:23.547Z,5.50
2018-11-26T02:52:51.943Z,5.50
2018-11-26T02:55:20.573Z,5.60
2018-11-26T02:57:49.053Z,5.60
2018-11-26T03:00:17.805Z,5.60
2018-11-26T03:02:46.364Z,5.60
2018-11-26T03:05:26.378Z,5.50
2018-11-26T03:07:55.595Z,5.50
2018-11-26T03:10:24.841Z,5.50
2018-11-26T03:12:53.307Z,5.50
2018-11-26T03:15:22.152Z,5.50
2018-11-26T03:17:50.562Z,5.50
2018-11-26T03:20:19.029Z,5.50
2018-11-26T03:22:47.903Z,5.50
2018-11-26T03:25:16.566Z,5.50
2018-11-26T03:27:45.014Z,5.50
2018-11-26T03:30:22.018Z,5.50
2018-11-26T03:32:50.593Z,5.50
2018-11-26T03:35:19.233Z,5.50
2018-11-26T03:37:47.633Z,5.50
2018-11-26T03:40:16.168Z,5.60
2018-11-26T03:42:45.421Z,5.60
2018-11-26T03:45:18.410Z,5.60
2018-11-26T03:47:47.153Z,5.60
2018-11-26T03:50:16.001Z,5.60
2018-11-26T03:52:45.243Z,5.60
2018-11-26T03:55:14.647Z,5.70
2018-11-26T03:57:43.330Z,5.70
2018-11-26T04:00:15.123Z,5.70
2018-11-26T04:02:43.880Z,5.70
2018-11-26T04:05:13.271Z,5.60
2018-11-26T04:07:42.439Z,5.60
2018-11-26T04:10:12.226Z,5.60
2018-11-26T04:12:40.753Z,5.60
2018-11-26T04:15:11.975Z,5.70
2018-11-26T04:17:40.768Z,5.60
2018-11-26T04:20:09.417Z,5.60
2018-11-26T04:22:37.906Z,5.70
2018-11-26T04:25:07.769Z,5.60
2018-11-26T04:27:38.036Z,5.60
2018-11-26T04:30:09.435Z,5.70
2018-11-26T04:32:38.220Z,5.70
2018-11-26T04:35:07.169Z,5.70
2018-11-26T04:37:35.596Z,5.70
2018-11-26T04:40:04.091Z,5.70
2018-11-26T04:42:33.481Z,5.70
2018-11-26T04:45:01.889Z,5.70
2018-11-26T04:47:30.389Z,5.70
2018-11-26T04:49:59.036Z,5.70
2018-11-26T04:52:27.650Z,5.70
2018-11-26T04:54:55.991Z,5.70
2018-11-26T04:57:24.423Z,5.70
2018-11-26T04:59:53.016Z,5.70
2018-11-26T05:02:22.715Z,5.70
2018-11-26T05:04:51.157Z,5.70
2018-11-26T05:07:19.720Z,5.70
2018-11-26T05:09:48.486Z,5.70
2018-11-26T05:12:17.116Z,5.70
2018-11-26T05:14:45.856Z,5.70
2018-11-26T05:17:14.294Z,5.70
2018-11-26T05:19:42.766Z,5.70
2018-11-26T05:22:11.267Z,5.70
2018-11-26T05:24:39.653Z,5.70
2018-11-26T05:27:09.279Z,5.70
2018-11-26T05:29:37.726Z,5.70
2018-11-26T05:32:06.812Z,5.80
2018-11-26T05:34:36.380Z,5.70
2018-11-26T05:37:04.840Z,5.70
2018-11-26T05:39:33.289Z,5.70
2018-11-26T05:42:01.797Z,5.70
2018-11-26T05:44:30.271Z,5.70
2018-11-26T05:46:58.749Z,5.70
2018-11-26T05:49:27.237Z,5.80
2018-11-26T05:51:55.667Z,5.80
2018-11-26T05:54:25.254Z,5.80
2018-11-26T05:56:53.684Z,5.80
2018-11-26T05:59:22.192Z,5.80
2018-11-26T06:01:50.635Z,5.80
2018-11-26T06:04:20.383Z,5.90
2018-11-26T06:06:49.063Z,5.90
2018-11-26T06:09:18.971Z,5.90
2018-11-26T06:11:48.071Z,5.80
2018-11-26T06:14:17.733Z,5.90
2018-11-26T06:16:53.483Z,5.80
2018-11-26T06:19:17.727Z,5.90
2018-11-26T06:21:47.302Z,5.90
2018-11-26T06:24:16.925Z,5.90
2018-11-26T06:26:46.634Z,5.90
2018-11-26T06:29:15.369Z,5.90
2018-11-26T06:31:44.000Z,5.90
2018-11-26T06:34:13.184Z,5.90
2018-11-26T06:36:42.034Z,5.90
2018-11-26T06:39:11.018Z,6.00
2018-11-26T06:41:39.553Z,6.00
2018-11-26T06:44:08.159Z,5.90
2018-11-26T06:46:36.843Z,5.90
2018-11-26T06:49:06.365Z,6.00
2018-11-26T06:51:35.769Z,6.00
2018-11-26T06:54:04.824Z,6.00
2018-11-26T06:56:34.811Z,6.00
2018-11-26T06:59:03.644Z,6.00
2018-11-26T07:01:34.253Z,6.00
2018-11-26T07:04:02.812Z,6.00
2018-11-26T07:06:31.302Z,6.00
2018-11-26T07:08:59.796Z,6.00
2018-11-26T07:11:28.321Z,6.00
2018-11-26T07:13:56.782Z,6.00
2018-11-26T07:16:25.215Z,6.00
2018-11-26T07:18:54.337Z,5.90
2018-11-26T07:21:22.840Z,6.00
2018-11-26T07:23:51.846Z,6.00
2018-11-26T07:26:20.564Z,6.00
2018-11-26T07:28:48.999Z,6.00
2018-11-26T07:31:17.449Z,6.00
2018-11-26T07:33:45.923Z,6.00
2018-11-26T07:36:14.517Z,6.10
2018-11-26T07:38:43.117Z,6.10
2018-11-26T07:41:11.600Z,6.10
2018-11-26T07:43:40.054Z,6.10
2018-11-26T07:46:09.068Z,6.10
2018-11-26T07:48:37.504Z,6.10
2018-11-26T07:51:06.327Z,6.10
2018-11-26T07:53:34.805Z,6.10
2018-11-26T07:56:03.455Z,6.10
2018-11-26T07:58:31.960Z,6.10
2018-11-26T08:01:02.830Z,6.10
2018-11-26T08:03:31.332Z,6.10
2018-11-26T08:05:59.802Z,6.10
2018-11-26T08:08:28.348Z,6.10
2018-11-26T08:10:56.824Z,6.10
2018-11-26T08:13:25.247Z,6.20
2018-11-26T08:15:53.620Z,6.20
2018-11-26T08:18:23.850Z,6.20
2018-11-26T08:20:53.597Z,6.20
2018-11-26T08:23:22.647Z,6.20
2018-11-26T08:25:51.941Z,6.20
2018-11-26T08:28:21.720Z,6.20
2018-11-26T08:30:51.627Z,6.20
2018-11-26T08:33:20.152Z,6.20
2018-11-26T08:35:49.038Z,6.20
2018-11-26T08:38:22.729Z,6.20
2018-11-26T08:40:56.989Z,6.20
2018-11-26T08:43:30.646Z,6.20
2018-11-26T08:46:04.040Z,6.20
2018-11-26T08:48:32.524Z,6.20
2018-11-26T08:51:17.688Z,6.20
2018-11-26T08:53:46.106Z,6.20
2018-11-26T08:56:14.683Z,6.20
2018-11-26T08:58:43.421Z,6.30
2018-11-26T09:01:17.844Z,6.30
2018-11-26T09:03:48.547Z,6.30
2018-11-26T09:06:17.768Z,6.30
2018-11-26T09:08:46.516Z,6.30
2018-11-26T09:11:15.231Z,6.40
2018-11-26T09:13:44.283Z,6.40
2018-11-26T09:16:12.799Z,6.40
2018-11-26T09:18:42.945Z,6.40
2018-11-26T09:21:11.670Z,6.40
2018-11-26T09:23:40.462Z,6.40
2018-11-26T09:26:09.089Z,6.50
2018-11-26T09:28:37.605Z,6.50
2018-11-26T09:31:06.418Z,6.50
2018-11-26T09:33:35.200Z,6.50
2018-11-26T09:36:04.841Z,6.50
2018-11-26T09:38:33.320Z,6.60
2018-11-26T09:41:01.818Z,6.60
2018-11-26T09:43:30.573Z,6.60
2018-11-26T09:45:59.926Z,6.60
2018-11-26T09:48:28.407Z,6.60
2018-11-26T09:50:56.882Z,6.70
2018-11-26T09:53:25.718Z,6.70
2018-11-26T09:55:54.843Z,6.70
2018-11-26T09:58:23.450Z,6.70
2018-11-26T10:00:52.338Z,6.70
2018-11-26T10:03:21.584Z,6.70
2018-11-26T10:05:50.129Z,6.70
2018-11-26T10:08:18.539Z,6.80
2018-11-26T10:10:47.408Z,6.80
2018-11-26T10:13:15.799Z,6.80
2018-11-26T10:15:44.398Z,6.80
2018-11-26T10:18:13.948Z,6.90
2018-11-26T10:20:42.495Z,6.90
2018-11-26T10:23:11.203Z,6.90
2018-11-26T10:25:39.694Z,6.90
2018-11-26T10:28:08.453Z,6.90
2018-11-26T10:30:37.064Z,6.90
2018-11-26T10:33:06.071Z,6.90
2018-11-26T10:35:34.504Z,6.90
2018-11-26T10:38:03.367Z,7.00
2018-11-26T10:40:32.296Z,7.00
2018-11-26T10:43:00.915Z,7.10
2018-11-26T10:45:29.323Z,7.10
2018-11-26T10:47:57.798Z,7.10
2018-11-26T10:50:27.001Z,7.10
2018-11-26T10:52:56.944Z,7.10
2018-11-26T10:55:30.270Z,7.10
2018-11-26T10:57:59.165Z,7.10
2018-11-26T11:00:32.931Z,7.10
2018-11-26T11:03:01.677Z,7.10
2018-11-26T11:05:30.205Z,7.20
2018-11-26T11:07:58.729Z,7.20
2018-11-26T11:10:29.816Z,7.20
2018-11-26T11:12:58.355Z,7.10
2018-11-26T11:15:26.928Z,7.10
2018-11-26T11:17:55.284Z,7.20
2018-11-26T11:20:26.442Z,7.20
2018-11-26T11:22:54.960Z,7.20
2018-11-26T11:25:24.795Z,7.20
2018-11-26T11:27:53.715Z,7.20
2018-11-26T11:30:24.681Z,7.30
2018-11-26T11:32:53.345Z,7.30
2018-11-26T11:35:21.844Z,7.30
2018-11-26T11:37:51.700Z,7.40
2018-11-26T11:40:22.400Z,7.40
2018-11-26T11:42:50.767Z,7.40
2018-11-26T11:45:24.837Z,7.40
2018-11-26T11:47:53.356Z,7.40
2018-11-26T11:50:22.973Z,7.40
2018-11-26T11:52:52.089Z,7.40
2018-11-26T11:55:22.961Z,7.30
2018-11-26T11:57:52.493Z,7.40
2018-11-26T12:00:40.636Z,7.40
2018-11-26T12:03:15.818Z,7.40
2018-11-26T12:05:44.348Z,7.40
2018-11-26T12:08:13.039Z,7.40
2018-11-26T12:10:41.497Z,7.30
2018-11-26T12:13:11.255Z,7.30
2018-11-26T12:15:42.699Z,7.30
2018-11-26T12:18:13.479Z,7.30
2018-11-26T12:20:42.417Z,7.40
2018-11-26T12:23:10.808Z,7.40
2018-11-26T12:25:39.571Z,7.40
2018-11-26T12:28:08.390Z,7.40
2018-11-26T12:30:39.998Z,7.40
2018-11-26T12:33:08.812Z,7.40
2018-11-26T12:35:37.569Z,7.40
2018-11-26T12:38:06.418Z,7.40
2018-11-26T12:40:34.958Z,7.40
2018-11-26T12:43:04.099Z,7.40
2018-11-26T12:45:34.391Z,7.50
2018-11-26T12:48:02.991Z,7.50
2018-11-26T12:50:31.410Z,7.50
2018-11-26T12:52:59.821Z,7.50
2018-11-26T12:55:28.637Z,7.50
2018-11-26T12:57:58.467Z,7.40
2018-11-26T13:00:28.330Z,7.40
2018-11-26T13:03:01.931Z,7.40
2018-11-26T13:05:30.555Z,7.40
2018-11-26T13:07:58.955Z,7.40
2018-11-26T13:10:27.617Z,7.40
2018-11-26T13:12:56.079Z,7.40
2018-11-26T13:15:26.172Z,7.40
2018-11-26T13:17:54.648Z,7.50
2018-11-26T13:20:25.428Z,7.50
2018-11-26T13:22:56.091Z,7.40
2018-11-26T13:25:25.784Z,7.40
2018-11-26T13:27:58.076Z,7.20
2018-11-26T13:30:27.824Z,7.20
2018-11-26T13:32:57.587Z,7.20
2018-11-26T13:35:26.402Z,7.20
2018-11-26T13:37:55.081Z,7.20
2018-11-26T13:40:23.784Z,7.20
2018-11-26T13:42:52.754Z,7.20
2018-11-26T13:45:23.227Z,7.10
2018-11-26T13:47:52.604Z,7.10
2018-11-26T13:50:23.252Z,7.00
2018-11-26T13:52:51.924Z,7.10
2018-11-26T13:55:20.365Z,7.10
2018-11-26T13:57:48.828Z,7.00
2018-11-26T14:00:18.186Z,6.90
2018-11-26T14:02:46.665Z,6.90
2018-11-26T14:05:16.737Z,6.90
2018-11-26T14:07:45.989Z,6.90
2018-11-26T14:10:22.109Z,6.90
2018-11-26T14:12:58.965Z,6.90
2018-11-26T14:15:27.749Z,6.90
2018-11-26T14:17:56.653Z,7.00
2018-11-26T14:20:25.364Z,7.00
2018-11-26T14:22:54.047Z,6.90
2018-11-26T14:25:23.488Z,6.90
2018-11-26T14:27:54.661Z,6.90
2018-11-26T14:30:25.587Z,6.90
2018-11-26T14:32:55.202Z,6.90
2018-11-26T14:35:24.950Z,6.90
2018-11-26T14:37:59.229Z,6.90
2018-11-26T14:40:30.869Z,6.90
2018-11-26T14:42:59.498Z,6.90
2018-11-26T14:48:02.589Z,6.90
2018-11-26T14:50:31.103Z,6.90
2018-11-26T14:53:03.329Z,6.80
2018-11-26T14:55:32.734Z,6.90
2018-11-26T14:58:01.295Z,6.90
2018-11-26T15:00:29.729Z,6.90
2018-11-26T15:02:58.169Z,6.90
2018-11-26T15:05:26.630Z,6.90
2018-11-26T15:07:55.056Z,6.90
2018-11-26T15:10:24.907Z,6.80
2018-11-26T15:12:53.362Z,6.80
2018-11-26T15:15:24.071Z,6.80
2018-11-26T15:17:52.513Z,6.80
2018-11-26T15:20:23.862Z,6.80
2018-11-26T15:22:53.842Z,6.70
2018-11-26T15:25:23.603Z,6.80
2018-11-26T15:27:54.029Z,6.70
2018-11-26T15:30:23.988Z,6.60
2018-11-26T15:32:53.202Z,6.60
2018-11-26T15:35:22.969Z,6.60
2018-11-26T15:37:51.633Z,6.60
2018-11-26T15:40:21.502Z,6.50
2018-11-26T15:42:50.073Z,6.50
2018-11-26T15:45:24.027Z,6.50
2018-11-26T15:47:53.612Z,6.50
2018-11-26T15:50:22.255Z,6.40
2018-11-26T15:52:50.760Z,6.50
2018-11-26T15:55:20.631Z,6.50
2018-11-26T15:57:49.206Z,6.40
2018-11-26T16:00:21.521Z,6.40
2018-11-26T16:02:50.527Z,6.40
2018-11-26T16:05:22.397Z,6.40
2018-11-26T16:07:52.193Z,6.40
2018-11-26T16:10:21.162Z,6.40
2018-11-26T16:12:51.690Z,6.40
2018-11-26T16:15:25.562Z,6.40
2018-11-26T16:17:55.973Z,6.30
2018-11-26T16:20:26.235Z,6.30
2018-11-26T16:22:55.630Z,6.30
2018-11-26T16:25:26.058Z,6.30
2018-11-26T16:27:54.531Z,6.20
2018-11-26T16:30:23.360Z,6.20
2018-11-26T16:32:58.969Z,6.20
2018-11-26T16:35:29.265Z,6.20
2018-11-26T16:37:57.865Z,6.30
2018-11-26T16:40:26.299Z,6.40
2018-11-26T16:42:54.813Z,6.40
2018-11-26T16:45:26.917Z,6.30
2018-11-26T16:47:56.285Z,6.20
2018-11-26T16:50:27.256Z,6.20
2018-11-26T16:52:55.649Z,6.20
2018-11-26T16:55:24.104Z,6.20
2018-11-26T16:57:52.598Z,6.10
2018-11-26T17:00:25.828Z,6.00
2018-11-26T17:02:57.540Z,6.00
2018-11-26T17:05:43.235Z,5.90
2018-11-26T17:08:13.675Z,5.90
2018-11-26T17:10:42.589Z,5.90
2018-11-26T17:13:12.493Z,5.90
2018-11-26T17:15:41.029Z,5.90
2018-11-26T17:18:09.732Z,6.00
2018-11-26T17:20:38.584Z,6.00
2018-11-26T17:23:07.986Z,6.00
2018-11-26T17:25:36.436Z,5.90
2018-11-26T17:28:05.178Z,5.90
2018-11-26T17:30:33.617Z,5.90
2018-11-26T17:33:03.487Z,5.80
2018-11-26T17:35:32.337Z,5.80
2018-11-26T17:38:00.789Z,5.80
2018-11-26T17:40:29.173Z,5.80
2018-11-26T17:42:57.924Z,5.80
2018-11-26T17:45:29.581Z,5.80
2018-11-26T17:47:59.507Z,5.80
2018-11-26T17:50:30.672Z,5.80
2018-11-26T17:52:59.295Z,5.70
2018-11-26T17:55:28.062Z,5.70
2018-11-26T17:57:56.490Z,5.70
2018-11-26T18:00:30.667Z,5.70
2018-11-26T18:02:59.136Z,5.70
2018-11-26T18:05:29.137Z,5.70
2018-11-26T18:08:14.270Z,5.70
2018-11-26T18:10:42.790Z,5.70
2018-11-26T18:13:11.238Z,5.60
2018-11-26T18:15:39.794Z,5.60
2018-11-26T18:18:15.479Z,5.60
2018-11-26T18:20:44.226Z,5.60
2018-11-26T18:23:13.590Z,5.60
2018-11-26T18:25:42.570Z,5.60
2018-11-26T18:28:14.242Z,5.70
2018-11-26T18:30:46.139Z,5.70
2018-11-26T18:33:14.689Z,5.60
2018-11-26T18:35:43.798Z,5.60
2018-11-26T18:38:12.229Z,5.70
2018-11-26T18:40:42.220Z,5.60
2018-11-26T18:43:10.708Z,5.60
2018-11-26T18:45:40.547Z,5.60
2018-11-26T18:48:10.560Z,5.50
2018-11-26T18:50:39.364Z,5.40
2018-11-26T18:53:08.445Z,5.50
2018-11-26T18:55:37.786Z,5.30
2018-11-26T18:58:06.707Z,5.30
2018-11-26T19:00:43.815Z,5.40
2018-11-26T19:03:12.327Z,5.40
2018-11-26T19:05:40.813Z,5.40
2018-11-26T19:08:09.232Z,5.30
2018-11-26T19:10:38.211Z,5.30
2018-11-26T19:13:14.198Z,5.30
2018-11-26T19:15:45.401Z,5.30
2018-11-26T19:18:22.953Z,5.30
2018-11-26T19:20:51.695Z,5.30
2018-11-26T19:23:20.620Z,5.20
2018-11-26T19:25:50.934Z,5.10
2018-11-26T19:28:20.428Z,5.10
2018-11-26T19:30:48.075Z,5.10
2018-11-26T19:33:16.837Z,5.10
2018-11-26T19:35:45.557Z,5.10
2018-11-26T19:38:14.257Z,5.20
2018-11-26T19:40:42.716Z,5.10
2018-11-26T19:43:11.634Z,5.10
2018-11-26T19:45:40.160Z,5.10
2018-11-26T19:48:09.502Z,5.00
2018-11-26T19:50:39.120Z,5.10
2018-11-26T19:53:10.120Z,5.00
2018-11-26T19:55:39.498Z,5.00
2018-11-26T19:58:09.178Z,5.10
2018-11-26T20:00:38.583Z,5.10
2018-11-26T20:03:20.189Z,5.10
2018-11-26T20:06:07.677Z,5.10
2018-11-26T20:08:36.145Z,5.10
2018-11-26T20:11:05.165Z,5.10
2018-11-26T20:13:33.661Z,5.10
2018-11-26T20:16:02.147Z,5.10
2018-11-26T20:18:30.571Z,5.20
2018-11-26T20:20:59.056Z,5.20
2018-11-26T20:23:27.584Z,5.20
2018-11-26T20:25:56.051Z,5.10
2018-11-26T20:28:24.793Z,5.10
2018-11-26T20:30:53.191Z,5.10
2018-11-26T20:33:21.688Z,5.00
2018-11-26T20:35:50.223Z,5.10
2018-11-26T20:38:18.660Z,5.10
2018-11-26T20:40:47.042Z,5.10
2018-11-26T20:43:15.820Z,5.20
2018-11-26T20:45:48.024Z,5.20
2018-11-26T20:48:16.654Z,5.10
2018-11-26T20:50:49.798Z,5.10
2018-11-26T20:53:19.702Z,5.20
2018-11-26T20:55:48.141Z,5.10
2018-11-26T20:58:16.530Z,5.10
2018-11-26T21:00:45.140Z,5.10
2018-11-26T21:03:13.972Z,5.10
2018-11-26T21:05:42.879Z,5.10
2018-11-26T21:08:11.974Z,5.00
2018-11-26T21:10:41.033Z,5.00
2018-11-26T21:13:09.867Z,5.00
2018-11-26T21:15:38.659Z,5.30
2018-11-26T21:18:09.131Z,5.20
2018-11-26T21:20:42.423Z,5.10
2018-11-26T21:23:12.869Z,5.10
2018-11-26T21:25:41.721Z,5.10
2018-11-26T21:28:16.966Z,5.10
2018-11-26T21:30:51.858Z,5.00
2018-11-26T21:33:15.631Z,5.10
2018-11-26T21:35:44.336Z,5.00
2018-11-26T21:38:13.212Z,5.00
2018-11-26T21:40:42.077Z,5.00
2018-11-26T21:43:12.159Z,5.00
2018-11-26T21:46:12.144Z,5.10
2018-11-26T21:48:40.117Z,5.10
2018-11-26T21:51:08.921Z,5.00
2018-11-26T21:53:37.822Z,5.10
2018-11-26T21:56:06.490Z,5.10
2018-11-26T21:58:35.200Z,5.00
2018-11-26T22:01:06.359Z,5.10
2018-11-26T22:03:35.060Z,5.10
2018-11-26T22:06:04.138Z,5.10
2018-11-26T22:08:32.860Z,4.90
2018-11-26T22:11:02.593Z,4.90
2018-11-26T22:13:32.079Z,4.90
2018-11-26T22:16:00.815Z,5.00
2018-11-26T22:18:29.542Z,4.90
2018-11-26T22:20:58.297Z,4.90
2018-11-26T22:23:26.947Z,4.90
2018-11-26T22:25:55.809Z,5.00
2018-11-26T22:28:24.508Z,4.90
2018-11-26T22:30:53.215Z,4.90
2018-11-26T22:33:21.939Z,4.90
2018-11-26T22:35:50.617Z,4.80
2018-11-26T22:38:19.559Z,4.90
2018-11-26T22:40:48.023Z,4.90
2018-11-26T22:43:16.473Z,4.80
2018-11-26T22:45:44.916Z,4.80
2018-11-26T22:48:13.898Z,4.80
2018-11-26T22:50:43.663Z,4.80
2018-11-26T22:53:12.473Z,4.70
2018-11-26T22:55:40.981Z,4.80
2018-11-26T22:58:12.997Z,4.80
2018-11-26T23:00:57.428Z,4.80
2018-11-26T23:03:27.014Z,4.80
2018-11-26T23:05:55.435Z,4.80
2018-11-26T23:08:23.949Z,4.80
2018-11-26T23:10:52.875Z,4.80
2018-11-26T23:13:21.300Z,4.80
2018-11-26T23:15:49.819Z,4.80
2018-11-26T23:18:19.174Z,4.80
2018-11-26T23:20:47.614Z,4.80
2018-11-26T23:23:16.027Z,4.80
2018-11-26T23:25:44.532Z,4.80
2018-11-26T23:28:12.925Z,4.80
2018-11-26T23:30:41.389Z,4.80
2018-11-26T23:33:09.859Z,4.80
2018-11-26T23:35:38.352Z,4.80
2018-11-26T23:38:06.874Z,4.80
2018-11-26T23:40:35.648Z,4.80
2018-11-26T23:43:04.467Z,4.90
2018-11-26T23:45:33.551Z,4.90
2018-11-26T23:48:01.997Z,4.90
2018-11-26T23:50:30.419Z,4.80
2018-11-26T23:52:58.879Z,4.80
2018-11-26T23:55:27.478Z,4.80
2018-11-26T23:57:55.920Z,4.80
